地図

経路データ

SID SEASON NUMBER BASIN SUBBASIN NAME ISO_TIME NATURE LAT LON WMO_WIND WMO_PRES WMO_AGENCY TRACK_TYPE DIST2LAND LANDFALL IFLAG USA_AGENCY USA_ATCF_ID USA_LAT USA_LON USA_RECORD USA_STATUS USA_WIND USA_PRES USA_SSHS USA_R34_NE USA_R34_SE USA_R34_SW USA_R34_NW USA_R50_NE USA_R50_SE USA_R50_SW USA_R50_NW USA_R64_NE USA_R64_SE USA_R64_SW USA_R64_NW USA_POCI USA_ROCI USA_RMW USA_EYE TOKYO_LAT TOKYO_LON TOKYO_GRADE TOKYO_WIND TOKYO_PRES TOKYO_R50_DIR TOKYO_R50_LONG TOKYO_R50_SHORT TOKYO_R30_DIR TOKYO_R30_LONG TOKYO_R30_SHORT TOKYO_LAND CMA_LAT CMA_LON CMA_CAT CMA_WIND CMA_PRES HKO_LAT HKO_LON HKO_CAT HKO_WIND HKO_PRES NEWDELHI_LAT NEWDELHI_LON NEWDELHI_GRADE NEWDELHI_WIND NEWDELHI_PRES NEWDELHI_CI NEWDELHI_DP NEWDELHI_POCI REUNION_LAT REUNION_LON REUNION_TYPE REUNION_WIND REUNION_PRES REUNION_TNUM REUNION_CI REUNION_RMW REUNION_R34_NE REUNION_R34_SE REUNION_R34_SW REUNION_R34_NW REUNION_R50_NE REUNION_R50_SE REUNION_R50_SW REUNION_R50_NW REUNION_R64_NE REUNION_R64_SE REUNION_R64_SW REUNION_R64_NW BOM_LAT BOM_LON BOM_TYPE BOM_WIND BOM_PRES BOM_TNUM BOM_CI BOM_RMW BOM_R34_NE BOM_R34_SE BOM_R34_SW BOM_R34_NW BOM_R50_NE BOM_R50_SE BOM_R50_SW BOM_R50_NW BOM_R64_NE BOM_R64_SE BOM_R64_SW BOM_R64_NW BOM_ROCI BOM_POCI BOM_EYE BOM_POS_METHOD BOM_PRES_METHOD NADI_LAT NADI_LON NADI_CAT NADI_WIND NADI_PRES WELLINGTON_LAT WELLINGTON_LON WELLINGTON_WIND WELLINGTON_PRES DS824_LAT DS824_LON DS824_STAGE DS824_WIND DS824_PRES TD9636_LAT TD9636_LON TD9636_STAGE TD9636_WIND TD9636_PRES TD9635_LAT TD9635_LON TD9635_WIND TD9635_PRES TD9635_ROCI NEUMANN_LAT NEUMANN_LON NEUMANN_CLASS NEUMANN_WIND NEUMANN_PRES MLC_LAT MLC_LON MLC_CLASS MLC_WIND MLC_PRES USA_GUST BOM_GUST BOM_GUST_PER REUNION_GUST REUNION_GUST_PER USA_SEAHGT USA_SEARAD_NE USA_SEARAD_SE USA_SEARAD_SW USA_SEARAD_NW STORM_SPEED STORM_DIR
1903278N26288 1903 53 NA NA NOT_NAMED 1903-10-05 00:00:00 TS 25.5000 -72.5000 35 hurdat_atl main 483 483 O_____________ hurdat_atl AL081903 25.5000 -72.5000 TS 35 0 2 41
1903278N26288 1903 53 NA NA NOT_NAMED 1903-10-05 03:00:00 TS 25.5900 -72.4100 main 495 495 P_____________ AL081903 25.5900 -72.4100 TS 35 0 3 42
1903278N26288 1903 53 NA NA NOT_NAMED 1903-10-05 06:00:00 TS 25.7000 -72.3000 35 hurdat_atl main 507 507 O_____________ hurdat_atl AL081903 25.7000 -72.3000 TS 35 0 3 42
1903278N26288 1903 53 NA NA NOT_NAMED 1903-10-05 09:00:00 TS 25.8425 -72.1575 main 520 520 P_____________ AL081903 25.8425 -72.1575 TS 37 0 4 42
1903278N26288 1903 53 NA NA NOT_NAMED 1903-10-05 12:00:00 TS 26.0000 -72.0000 40 hurdat_atl main 546 546 O_____________ hurdat_atl AL081903 26.0000 -72.0000 TS 40 0 4 41
1903278N26288 1903 53 NA NA NOT_NAMED 1903-10-05 15:00:00 TS 26.1500 -71.8574 main 558 558 P_____________ AL081903 26.1500 -71.8574 TS 40 0 4 42
1903278N26288 1903 53 NA NA NOT_NAMED 1903-10-05 18:00:00 TS 26.3000 -71.7000 40 hurdat_atl main 585 585 O_____________ hurdat_atl AL081903 26.3000 -71.7000 TS 40 0 4 46
1903278N26288 1903 53 NA NA NOT_NAMED 1903-10-05 21:00:00 TS 26.4500 -71.5075 main 611 600 P_____________ AL081903 26.4500 -71.5075 TS 40 0 5 50
1903278N26288 1903 53 NA NA NOT_NAMED 1903-10-06 00:00:00 TS 26.6000 -71.3000 40 hurdat_atl main 627 627 O_____________ hurdat_atl AL081903 26.6000 -71.3000 TS 40 0 5 50
1903278N26288 1903 53 NA NA NOT_NAMED 1903-10-06 03:00:00 TS 26.7500 -71.1000 main 644 644 P_____________ AL081903 26.7500 -71.1000 TS 40 0 5 50
1903278N26288 1903 53 NA NA NOT_NAMED 1903-10-06 06:00:00 TS 26.9000 -70.9000 40 hurdat_atl main 671 671 O_____________ hurdat_atl AL081903 26.9000 -70.9000 TS 40 0 5 50
1903278N26288 1903 53 NA NA NOT_NAMED 1903-10-06 09:00:00 TS 27.0500 -70.7000 main 688 688 P_____________ AL081903 27.0500 -70.7000 TS 40 0 5 50
1903278N26288 1903 53 NA NA NOT_NAMED 1903-10-06 12:00:00 TS 27.2000 -70.5000 40 hurdat_atl main 716 716 O_____________ hurdat_atl AL081903 27.2000 -70.5000 TS 40 0 5 50
1903278N26288 1903 53 NA NA NOT_NAMED 1903-10-06 15:00:00 TS 27.3500 -70.2999 main 734 734 P_____________ AL081903 27.3500 -70.2999 TS 40 0 5 50
1903278N26288 1903 53 NA NA NOT_NAMED 1903-10-06 18:00:00 TS 27.5000 -70.1000 40 hurdat_atl main 762 762 O_____________ hurdat_atl AL081903 27.5000 -70.1000 TS 40 0 5 50
1903278N26288 1903 53 NA NA NOT_NAMED 1903-10-06 21:00:00 TS 27.6500 -69.8999 main 780 780 P_____________ AL081903 27.6500 -69.8999 TS 40 0 5 50
1903278N26288 1903 53 NA NA NOT_NAMED 1903-10-07 00:00:00 TS 27.8000 -69.7000 40 hurdat_atl main 809 809 O_____________ hurdat_atl AL081903 27.8000 -69.7000 TS 40 0 5 50
1903278N26288 1903 53 NA NA NOT_NAMED 1903-10-07 03:00:00 TS 27.9424 -69.5074 main 827 827 P_____________ AL081903 27.9424 -69.5074 TS 40 0 5 50
1903278N26288 1903 53 NA NA NOT_NAMED 1903-10-07 06:00:00 TS 28.1000 -69.3000 40 hurdat_atl main 856 856 O_____________ hurdat_atl AL081903 28.1000 -69.3000 TS 40 0 5 49
1903278N26288 1903 53 NA NA NOT_NAMED 1903-10-07 09:00:00 TS 28.2850 -69.0649 main 885 885 P_____________ AL081903 28.2850 -69.0649 TS 40 0 6 48
1903278N26288 1903 53 NA NA NOT_NAMED 1903-10-07 12:00:00 TS 28.5000 -68.8000 40 hurdat_atl main 918 918 O_____________ hurdat_atl AL081903 28.5000 -68.8000 TS 40 0 7 46
1903278N26288 1903 53 NA NA NOT_NAMED 1903-10-07 15:00:00 TS 28.7424 -68.5224 main 952 952 P_____________ AL081903 28.7424 -68.5224 TS 42 0 7 46
1903278N26288 1903 53 NA NA NOT_NAMED 1903-10-07 18:00:00 TS 29.0000 -68.2000 45 hurdat_atl main 996 996 O_____________ hurdat_atl AL081903 29.0000 -68.2000 TS 45 0 8 51
1903278N26288 1903 53 NA NA NOT_NAMED 1903-10-07 21:00:00 TS 29.2502 -67.7926 main 1013 1013 P_____________ AL081903 29.2502 -67.7926 TS 47 0 9 54
1903278N26288 1903 53 NA NA NOT_NAMED 1903-10-08 00:00:00 TS 29.5000 -67.4000 50 hurdat_atl main 1029 1029 O_____________ hurdat_atl AL081903 29.5000 -67.4000 TS 50 0 8 49
1903278N26288 1903 53 NA NA NOT_NAMED 1903-10-08 03:00:00 TS 29.7498 -67.1198 main 1037 1029 P_____________ AL081903 29.7498 -67.1198 TS 52 0 7 41
1903278N26288 1903 53 NA NA NOT_NAMED 1903-10-08 06:00:00 TS 30.0000 -66.9000 55 hurdat_atl main 1029 1021 O_____________ hurdat_atl AL081903 30.0000 -66.9000 TS 55 0 6 37
1903278N26288 1903 53 NA NA NOT_NAMED 1903-10-08 09:00:00 TS 30.2425 -66.6849 main 1029 1022 P_____________ AL081903 30.2425 -66.6849 TS 57 0 6 35
1903278N26288 1903 53 NA NA NOT_NAMED 1903-10-08 12:00:00 TS 30.5000 -66.5000 60 hurdat_atl main 1023 1010 O_____________ hurdat_atl AL081903 30.5000 -66.5000 TS 60 0 6 28
1903278N26288 1903 53 NA NA NOT_NAMED 1903-10-08 15:00:00 TS 30.7925 -66.3424 main 1018 1005 P_____________ AL081903 30.7925 -66.3424 TS 60 0 7 23
1903278N26288 1903 53 NA NA NOT_NAMED 1903-10-08 18:00:00 TS 31.1000 -66.2000 60 hurdat_atl main 1007 997 O_____________ hurdat_atl AL081903 31.1000 -66.2000 TS 60 0 7 23
1903278N26288 1903 53 NA NA NOT_NAMED 1903-10-08 21:00:00 TS 31.4000 -66.0425 main 1005 993 P_____________ AL081903 31.4000 -66.0425 TS 60 0 7 23
1903278N26288 1903 53 NA NA NOT_NAMED 1903-10-09 00:00:00 TS 31.7000 -65.9000 60 hurdat_atl main 996 988 O_____________ hurdat_atl AL081903 31.7000 -65.9000 TS 60 0 6 20
1903278N26288 1903 53 NA NA NOT_NAMED 1903-10-09 03:00:00 TS 31.9925 -65.7923 main 988 981 P_____________ AL081903 31.9925 -65.7923 TS 60 0 6 16
1903278N26288 1903 53 NA NA NOT_NAMED 1903-10-09 06:00:00 TS 32.3000 -65.7000 60 hurdat_atl main 981 971 O_____________ hurdat_atl AL081903 32.3000 -65.7000 TS 60 0 7 14
1903278N26288 1903 53 NA NA NOT_NAMED 1903-10-09 09:00:00 TS 32.6425 -65.5999 main 975 966 P_____________ AL081903 32.6425 -65.5999 TS 60 0 7 13
1903278N26288 1903 53 NA NA NOT_NAMED 1903-10-09 12:00:00 TS 33.0000 -65.5000 60 hurdat_atl main 966 958 O_____________ hurdat_atl AL081903 33.0000 -65.5000 TS 60 0 7 14
1903278N26288 1903 53 NA NA NOT_NAMED 1903-10-09 15:00:00 TS 33.3425 -65.3925 main 963 956 P_____________ AL081903 33.3425 -65.3925 TS 60 0 7 13
1903278N26288 1903 53 NA NA NOT_NAMED 1903-10-09 18:00:00 TS 33.7000 -65.3000 60 hurdat_atl main 958 944 O_____________ hurdat_atl AL081903 33.7000 -65.3000 TS 60 0 8 9
1903278N26288 1903 53 NA NA NOT_NAMED 1903-10-09 21:00:00 TS 34.0925 -65.2424 main 944 904 P_____________ AL081903 34.0925 -65.2424 TS 57 0 8 6
1903278N26288 1903 53 NA NA NOT_NAMED 1903-10-10 00:00:00 TS 34.5000 -65.2000 55 hurdat_atl main 904 864 O_____________ hurdat_atl AL081903 34.5000 -65.2000 TS 55 0 8 6
1903278N26288 1903 53 NA NA NOT_NAMED 1903-10-10 03:00:00 TS 34.9000 -65.1499 main 868 829 P_____________ AL081903 34.9000 -65.1499 TS 52 0 8 6
1903278N26288 1903 53 NA NA NOT_NAMED 1903-10-10 06:00:00 TS 35.3000 -65.1000 50 hurdat_atl main 829 790 O_____________ hurdat_atl AL081903 35.3000 -65.1000 TS 50 0 8 6
1903278N26288 1903 53 NA NA NOT_NAMED 1903-10-10 09:00:00 TS 35.6775 -65.0573 main 790 757 P_____________ AL081903 35.6775 -65.0573 TS 50 0 8 6
1903278N26288 1903 53 NA NA NOT_NAMED 1903-10-10 12:00:00 ET 36.1000 -65.0000 50 hurdat_atl main 757 717 O_____________ hurdat_atl AL081903 36.1000 -65.0000 EX 50 -4 10 7
1903278N26288 1903 53 NA NA NOT_NAMED 1903-10-10 15:00:00 ET 36.6200 -64.9105 main 717 669 P_____________ AL081903 36.6200 -64.9105 EX 50 -4 11 8
1903278N26288 1903 53 NA NA NOT_NAMED 1903-10-10 18:00:00 ET 37.2000 -64.8000 50 hurdat_atl main 669 O_____________ hurdat_atl AL081903 37.2000 -64.8000 EX 50 -4 12 9

IBTrACS Databaseについて

本データベースは、米国NOAAが公開する1842年以降の世界の熱帯低気圧のベストトラックデータアーカイブInternational Best Track Archive for Climate Stewardship (IBTrACS)を、ウェブで閲覧しやすい形式に変換したものです。

最終更新日:2021-11-26